createdAt,value
2017-02-12T18:02:13.242Z,19.15
2017-02-12T18:02:54.618Z,19.06
2017-02-12T18:03:35.567Z,19.06
2017-02-12T18:04:16.518Z,19.25
2017-02-12T18:04:58.183Z,48.71
2017-02-12T18:05:38.746Z,48.08
2017-02-12T18:06:19.328Z,16.02
2017-02-12T18:08:57.877Z,6.83
2017-02-12T18:09:39.697Z,7.2
2017-02-12T18:10:20.312Z,7.47
2017-02-12T18:11:00.888Z,8.52
2017-02-12T18:11:41.505Z,9.28
2017-02-12T18:12:22.183Z,10.42
2017-02-12T18:13:03.380Z,10.5
2017-02-12T18:14:24.457Z,12.77
2017-02-12T18:15:05.003Z,13.15
2017-02-12T18:15:45.530Z,14
2017-02-12T18:16:26.061Z,15.23
2017-02-12T18:17:06.610Z,15.51
2017-02-12T18:17:47.156Z,16.55
2017-02-12T18:18:27.695Z,17.21
2017-02-12T18:19:08.262Z,17.78
2017-02-12T18:19:48.830Z,18.91
2017-02-12T18:20:29.367Z,19.28
2017-02-12T18:21:09.898Z,20.23
2017-02-12T18:21:50.450Z,21.17
2017-02-12T18:22:31.013Z,21.93
2017-02-12T18:23:52.140Z,22.96
2017-02-12T18:24:32.672Z,23.34
2017-02-12T18:25:13.226Z,24.29
2017-02-12T18:25:53.772Z,24.57
2017-02-12T18:26:34.324Z,24.66
2017-02-12T18:27:14.874Z,25.04
2017-02-12T18:27:55.459Z,25.6
2017-02-12T18:28:36.067Z,25.79
2017-02-12T18:29:16.631Z,25.89
2017-02-12T18:29:57.227Z,26.54
2017-02-12T18:30:37.754Z,26.73
2017-02-12T18:31:18.297Z,27.39
2017-02-12T18:31:58.840Z,27.87
2017-02-12T18:32:39.398Z,28.25
2017-02-12T18:33:19.949Z,28.53
2017-02-12T18:34:00.496Z,28.81
2017-02-12T18:34:41.038Z,29.48
2017-02-12T18:35:21.651Z,29.57
2017-02-12T18:36:02.177Z,29.48
2017-02-12T18:36:42.708Z,29.75
2017-02-12T18:37:23.256Z,30.03
2017-02-12T18:38:03.809Z,29.84
2017-02-12T18:38:44.377Z,30.32
2017-02-12T18:39:24.932Z,30.6
2017-02-12T18:40:05.465Z,30.98
2017-02-12T18:40:46.016Z,30.98
2017-02-12T18:41:26.673Z,31.17
2017-02-12T18:42:07.229Z,30.98
2017-02-12T18:42:47.782Z,31.17
2017-02-12T18:43:28.344Z,31.74
2017-02-12T18:44:08.903Z,31.64
2017-02-12T18:44:49.463Z,31.83
2017-02-12T18:45:30.052Z,32.02
2017-02-12T18:46:10.628Z,32.02
2017-02-12T18:46:51.191Z,32.59
2017-02-12T18:47:31.747Z,32.59
2017-02-12T18:48:12.319Z,32.87
2017-02-12T18:48:52.902Z,33.16
2017-02-12T18:49:33.455Z,33.25
2017-02-12T18:50:14.010Z,33.52
2017-02-12T18:50:54.560Z,33.52
2017-02-12T18:51:35.107Z,33.23
2017-02-12T18:52:16.168Z,33.43
2017-02-12T18:52:57.630Z,33.23
2017-02-12T18:53:41.504Z,33.62
2017-02-12T18:54:22.063Z,33.81
2017-02-12T18:55:03.725Z,33.9
2017-02-12T18:55:46.873Z,34.19
2017-02-12T18:56:32.309Z,34.09
2017-02-12T18:57:13.550Z,34.38
2017-02-12T18:57:54.090Z,34.09
2017-02-12T18:58:34.656Z,34.28
2017-02-12T18:59:15.495Z,34.47
2017-02-12T18:59:57.319Z,35.03
2017-02-12T19:00:39.098Z,34.47
2017-02-12T19:01:19.729Z,34.75
2017-02-12T19:02:01.188Z,34.75
2017-02-12T19:02:41.734Z,34.84
2017-02-12T19:03:22.290Z,35.03
2017-02-12T19:04:02.838Z,35.32
2017-02-12T19:04:43.422Z,35.41
2017-02-12T19:05:23.974Z,35.6
2017-02-12T19:06:04.549Z,35.51
2017-02-12T19:06:45.104Z,35.41
2017-02-12T19:07:25.635Z,35.51
2017-02-12T19:08:06.226Z,35.51
2017-02-12T19:08:46.783Z,35.41
2017-02-12T19:09:27.357Z,35.79
2017-02-12T19:10:07.936Z,35.79
2017-02-12T19:10:48.515Z,35.98
2017-02-12T19:11:29.129Z,36.17
2017-02-12T19:12:09.644Z,36.65
2017-02-12T19:12:50.230Z,36.55
2017-02-12T19:13:30.780Z,36.65
2017-02-12T19:14:11.344Z,36.55
2017-02-12T19:14:51.912Z,36.55
2017-02-12T19:15:32.451Z,36.65
2017-02-12T19:16:12.996Z,36.93
2017-02-12T19:16:53.519Z,37.02
2017-02-12T19:17:34.121Z,37.21
2017-02-12T19:18:14.689Z,37.12
2017-02-12T19:18:55.222Z,37.5
2017-02-12T19:19:35.784Z,37.5
2017-02-12T19:20:16.318Z,37.21
2017-02-12T19:20:56.935Z,37.21
2017-02-12T19:21:37.474Z,37.12
2017-02-12T19:22:18.005Z,37.31
2017-02-12T19:22:58.558Z,37.31
2017-02-12T19:23:39.106Z,37.69
2017-02-12T19:24:19.643Z,37.59
2017-02-12T19:25:00.172Z,37.59
2017-02-12T19:25:40.713Z,37.31
2017-02-12T19:26:21.265Z,37.4
2017-02-12T19:27:01.790Z,37.69
2017-02-12T19:27:42.332Z,37.97
2017-02-12T19:28:22.853Z,37.97
2017-02-12T19:29:03.389Z,37.97
2017-02-12T19:29:43.914Z,37.88
2017-02-12T19:30:24.456Z,38.07
2017-02-12T19:31:05.004Z,37.88
2017-02-12T19:31:45.536Z,37.97
2017-02-12T19:32:26.087Z,38.16
2017-02-12T19:33:06.637Z,38.16
2017-02-12T19:33:47.173Z,38.26
2017-02-12T19:34:27.703Z,38.07
2017-02-12T19:35:08.247Z,37.97
2017-02-12T19:35:48.788Z,37.88
2017-02-12T19:36:29.314Z,38.07
2017-02-12T19:37:09.878Z,38.16
2017-02-12T19:37:50.404Z,38.07
2017-02-12T19:38:30.928Z,38.26
2017-02-12T19:39:11.467Z,37.97
2017-02-12T19:39:51.996Z,38.07
2017-02-12T19:40:32.518Z,37.97
2017-02-12T19:41:13.086Z,38.16
2017-02-12T19:41:53.607Z,38.26
2017-02-12T19:42:34.140Z,38.45
2017-02-12T19:43:14.658Z,38.26
2017-02-12T19:43:55.190Z,38.26
2017-02-12T19:44:35.750Z,38.26
2017-02-12T19:45:16.267Z,38.14
2017-02-12T19:45:56.817Z,38.16
2017-02-12T19:46:37.390Z,38.52
2017-02-12T19:47:17.931Z,38.24
2017-02-12T19:47:58.463Z,38.52
2017-02-12T19:48:39.018Z,38.62
2017-02-12T19:49:19.560Z,38.62
2017-02-12T19:50:00.095Z,38.52
2017-02-12T19:50:40.639Z,38.24
2017-02-12T19:51:21.198Z,38.43
2017-02-12T19:52:01.756Z,38.43
2017-02-12T19:52:42.288Z,38.33
2017-02-12T19:53:22.836Z,38.14
2017-02-12T19:54:03.356Z,38.52
2017-02-12T19:54:43.899Z,38.52
2017-02-12T19:55:24.479Z,38.43
2017-02-12T19:56:05.035Z,38.43
2017-02-12T19:56:45.577Z,38.52
2017-02-12T19:57:26.118Z,38.9
2017-02-12T19:58:06.641Z,38.81
2017-02-12T19:58:47.160Z,39
2017-02-12T19:59:27.681Z,38.9
2017-02-12T20:00:08.206Z,38.81
2017-02-12T20:00:48.722Z,38.81
2017-02-12T20:01:29.256Z,38.71
2017-02-12T20:02:09.776Z,38.9
2017-02-12T20:02:50.303Z,38.62
2017-02-12T20:03:30.867Z,38.81
2017-02-12T20:04:11.405Z,38.62
2017-02-12T20:04:51.961Z,38.81
2017-02-12T20:05:32.487Z,39
2017-02-12T20:06:13.012Z,38.62
2017-02-12T20:06:53.553Z,39
2017-02-12T20:07:34.067Z,39.18
2017-02-12T20:08:14.585Z,39
2017-02-12T20:08:55.108Z,38.9
2017-02-12T20:09:35.622Z,39.28
2017-02-12T20:10:16.151Z,39.18
2017-02-12T20:10:56.685Z,39.39
2017-02-12T20:11:37.925Z,39.01
2017-02-12T20:12:18.447Z,38.82
2017-02-12T20:12:59.048Z,39.01
2017-02-12T20:13:39.581Z,39.01
2017-02-12T20:14:20.149Z,38.92
2017-02-12T20:15:00.662Z,38.45
2017-02-12T20:15:41.727Z,38.26
2017-02-12T20:16:23.162Z,38.24
2017-02-12T20:17:03.754Z,38.52
2017-02-12T20:17:44.983Z,38.45
2017-02-12T20:18:25.528Z,38.52
2017-02-12T20:19:06.046Z,38.52
2017-02-12T20:19:46.566Z,38.81
2017-02-12T20:20:27.121Z,38.62
2017-02-12T20:21:07.667Z,38.92
2017-02-12T20:21:48.199Z,39.01
2017-02-12T20:22:28.953Z,39.01
2017-02-12T20:23:09.303Z,39.01
2017-02-12T20:23:49.827Z,38.71
2017-02-12T20:24:30.355Z,38.82
2017-02-12T20:25:10.892Z,38.43
2017-02-12T20:25:51.467Z,38.33
2017-02-12T20:26:32.057Z,38.71
2017-02-12T20:27:12.586Z,39
2017-02-12T20:27:54.743Z,38.82
2017-02-12T20:28:35.691Z,39.01
2017-02-12T20:29:16.212Z,38.92
2017-02-12T20:29:56.727Z,38.92
2017-02-12T20:30:37.284Z,38.92
2017-02-12T20:31:17.831Z,38.92
2017-02-12T20:31:58.375Z,39.01
2017-02-12T20:32:38.900Z,39.01
2017-02-12T20:33:19.445Z,38.73
2017-02-12T20:33:59.970Z,38.35
2017-02-12T20:34:40.503Z,38.35
2017-02-12T20:35:21.029Z,38.35
2017-02-12T20:36:01.549Z,38.45
2017-02-12T20:36:42.085Z,38.45
2017-02-12T20:37:22.607Z,38.52
2017-02-12T20:38:03.127Z,38.82
2017-02-12T20:38:43.654Z,38.82
2017-02-12T20:39:24.240Z,38.73
2017-02-12T20:40:06.243Z,38.92
2017-02-12T20:40:46.763Z,38.81
2017-02-12T20:41:27.287Z,38.73
2017-02-12T20:42:07.816Z,39.11
2017-02-12T20:42:48.339Z,38.73
2017-02-12T20:43:28.864Z,39.29
2017-02-12T20:44:09.395Z,38.92
2017-02-12T20:44:49.935Z,38.64
2017-02-12T20:45:30.468Z,38.92
2017-02-12T20:46:10.998Z,38.82
2017-02-12T20:46:51.548Z,38.82
2017-02-12T20:47:32.091Z,38.73
2017-02-12T20:48:12.621Z,39.01
2017-02-12T20:48:53.160Z,38.92
2017-02-12T20:49:33.699Z,39.01
2017-02-12T20:50:14.223Z,38.92
2017-02-12T20:50:54.771Z,39.11
2017-02-12T20:51:35.286Z,38.54
2017-02-12T20:52:15.837Z,38.43
2017-02-12T20:52:56.385Z,38.54
2017-02-12T20:53:36.914Z,38.73
2017-02-12T20:54:17.441Z,38.73
2017-02-12T20:54:57.967Z,39.09
2017-02-12T20:55:38.504Z,38.82
2017-02-12T20:56:19.038Z,38.43
2017-02-12T20:56:59.656Z,38.52
2017-02-12T20:57:40.185Z,38.07
2017-02-12T20:58:20.710Z,38.43
2017-02-12T20:59:01.258Z,38.52
2017-02-12T20:59:41.765Z,38.43
2017-02-12T21:00:22.330Z,38.81
2017-02-12T21:01:02.865Z,39
2017-02-12T21:01:43.410Z,38.52
2017-02-12T21:02:23.945Z,39.01
2017-02-12T21:03:04.474Z,38.9
2017-02-12T21:03:45.016Z,38.62
2017-02-12T21:04:25.555Z,38.81
2017-02-12T21:05:06.092Z,38.9
2017-02-12T21:05:46.642Z,38.9
2017-02-12T21:06:27.160Z,38.9
2017-02-12T21:07:07.705Z,39
2017-02-12T21:07:48.253Z,39.28
2017-02-12T21:08:28.811Z,39.18
2017-02-12T21:09:09.341Z,39
2017-02-12T21:09:49.886Z,39.37
2017-02-12T21:10:30.430Z,39.65
2017-02-12T21:11:10.967Z,39.65
2017-02-12T21:11:51.481Z,39.56
2017-02-12T21:12:32.025Z,39.56
2017-02-12T21:13:12.557Z,39.47
2017-02-12T21:13:53.175Z,39.65
2017-02-12T21:14:33.717Z,39.65
2017-02-12T21:15:14.271Z,39.65
2017-02-12T21:15:54.793Z,39.47
2017-02-12T21:16:35.368Z,39.65
2017-02-12T21:17:15.889Z,39.47
2017-02-12T21:17:56.445Z,39.47
2017-02-12T21:18:37.012Z,39.65
2017-02-12T21:19:17.531Z,39.56
2017-02-12T21:19:58.056Z,39.84
2017-02-12T21:20:38.582Z,39.84
2017-02-12T21:21:19.134Z,39.84
2017-02-12T21:21:59.683Z,40.03
2017-02-12T21:22:40.265Z,40.13
2017-02-12T21:23:20.788Z,39.84
2017-02-12T21:24:01.314Z,39.84
2017-02-12T21:24:41.868Z,40.13
2017-02-12T21:25:22.386Z,40.13
2017-02-12T21:26:02.939Z,39.84
2017-02-12T21:26:43.495Z,39.65
2017-02-12T21:27:24.041Z,39.56
2017-02-12T21:28:04.594Z,39.84
2017-02-12T21:28:45.155Z,39.47
2017-02-12T21:29:25.694Z,40.13
2017-02-12T21:30:06.239Z,40.03
2017-02-12T21:30:46.764Z,40.03
2017-02-12T21:31:27.294Z,40.03
2017-02-12T21:32:07.822Z,40.03
2017-02-12T21:32:48.378Z,40.13
2017-02-12T21:33:28.916Z,40.03
2017-02-12T21:34:09.472Z,40.03
2017-02-12T21:34:50.004Z,40.22
2017-02-12T21:35:30.532Z,40.22
2017-02-12T21:36:11.112Z,40.03
2017-02-12T21:36:51.626Z,39.75
2017-02-12T21:37:32.168Z,39.56
2017-02-12T21:38:12.691Z,39.84
2017-02-12T21:38:53.214Z,39.65
2017-02-12T21:39:33.744Z,39.47
2017-02-12T21:40:14.302Z,39.47
2017-02-12T21:40:54.833Z,39.65
2017-02-12T21:41:35.387Z,39.56
2017-02-12T21:42:15.939Z,39.47
2017-02-12T21:42:56.470Z,39.37
2017-02-12T21:43:36.999Z,39.37
2017-02-12T21:44:17.554Z,39.47
2017-02-12T21:44:58.075Z,39.47
2017-02-12T21:45:38.623Z,39.84
2017-02-12T21:46:19.151Z,39.84
2017-02-12T21:46:59.713Z,39.75
2017-02-12T21:47:40.256Z,39.75
2017-02-12T21:48:20.780Z,39.75
2017-02-12T21:49:01.303Z,39.84
2017-02-12T21:49:41.918Z,39.56
2017-02-12T21:50:22.458Z,39.65
2017-02-12T21:51:03.010Z,39.56
2017-02-12T21:51:43.547Z,39.84
2017-02-12T21:52:24.093Z,39.28
2017-02-12T21:53:04.604Z,39.68
2017-02-12T21:53:45.140Z,39.94
2017-02-12T21:54:25.662Z,39.75
2017-02-12T21:55:06.204Z,39.75
2017-02-12T21:55:46.725Z,39.94
2017-02-12T21:56:27.273Z,39.84
2017-02-12T21:57:07.795Z,39.96
2017-02-12T21:57:48.324Z,39.68
2017-02-12T21:58:28.851Z,39.56
2017-02-12T21:59:09.376Z,39.56
2017-02-12T21:59:49.909Z,39.65
2017-02-12T22:00:30.440Z,39.77
2017-02-12T22:01:11.038Z,39.68
2017-02-12T22:01:51.567Z,39.94
2017-02-12T22:02:32.117Z,39.77
2017-02-12T22:03:12.672Z,40.06
2017-02-12T22:03:53.202Z,40.13
2017-02-12T22:04:33.731Z,39.75
2017-02-12T22:05:14.327Z,39.68
2017-02-12T22:05:54.891Z,39.65
2017-02-12T22:06:35.407Z,39.58
2017-02-12T22:07:15.925Z,39.75
2017-02-12T22:07:56.466Z,39.94
2017-02-12T22:08:37.012Z,39.47
2017-02-12T22:09:17.539Z,39.94
2017-02-12T22:09:58.102Z,39.28
2017-02-12T22:10:38.606Z,40.03
2017-02-12T22:11:19.126Z,40.13
2017-02-12T22:11:59.654Z,40.13
2017-02-12T22:12:40.185Z,40.22
2017-02-12T22:13:20.720Z,40.03
2017-02-12T22:14:01.238Z,40.13
2017-02-12T22:14:41.769Z,40.13
2017-02-12T22:15:22.302Z,40.22
2017-02-12T22:16:02.829Z,39.75
2017-02-12T22:16:43.377Z,40.13
2017-02-12T22:17:23.898Z,40.13
2017-02-12T22:18:04.425Z,40.13
2017-02-12T22:18:44.942Z,40.13
2017-02-12T22:19:25.486Z,40.13
2017-02-12T22:20:06.018Z,40.03
2017-02-12T22:20:46.548Z,40.13
2017-02-12T22:21:27.071Z,40.13
2017-02-12T22:22:07.605Z,40.03
2017-02-12T22:22:48.181Z,40.13
2017-02-12T22:23:28.714Z,40.03
2017-02-12T22:24:09.261Z,40.03
2017-02-12T22:24:49.791Z,40.13
2017-02-12T22:25:30.350Z,40.22
2017-02-12T22:26:10.870Z,40.22
2017-02-12T22:26:51.391Z,40.32
2017-02-12T22:27:31.920Z,40.32
2017-02-12T22:28:12.452Z,40.13
2017-02-12T22:28:52.988Z,40.13
2017-02-12T22:29:33.534Z,40.13
2017-02-12T22:30:14.070Z,40.7
2017-02-12T22:30:54.603Z,40.6
2017-02-12T22:31:35.120Z,40.22
2017-02-12T22:32:15.637Z,40.32
2017-02-12T22:32:56.158Z,40.51
2017-02-12T22:33:36.685Z,40.22
2017-02-12T22:34:17.223Z,40.22
2017-02-12T22:34:57.749Z,40.7
2017-02-12T22:35:38.295Z,40.6
2017-02-12T22:36:18.813Z,41.17
2017-02-12T22:36:59.338Z,41.08
2017-02-12T22:37:39.877Z,41.27
2017-02-12T22:38:20.405Z,41.36
2017-02-12T22:39:00.928Z,41.27
2017-02-12T22:39:41.469Z,41.27
2017-02-12T22:40:21.998Z,40.98
2017-02-12T22:41:02.547Z,41.17
2017-02-12T22:41:43.097Z,41.46
2017-02-12T22:42:23.658Z,41.64
2017-02-12T22:43:04.257Z,41.74
2017-02-12T22:43:44.817Z,41.55
2017-02-12T22:44:25.338Z,41.46
2017-02-12T22:45:05.894Z,41.74
2017-02-12T22:45:46.398Z,41.83
2017-02-12T22:46:26.942Z,41.83
2017-02-12T22:47:07.486Z,41.74
2017-02-12T22:47:48.023Z,41.93
2017-02-12T22:48:28.557Z,41.93
2017-02-12T22:49:09.096Z,41.83
2017-02-12T22:49:49.665Z,41.83
2017-02-12T22:50:30.210Z,41.91
2017-02-12T22:51:10.745Z,42
2017-02-12T22:51:51.265Z,42.69
2017-02-12T22:52:31.783Z,42.66
2017-02-12T22:53:12.334Z,42.57
2017-02-12T22:53:52.863Z,42.19
2017-02-12T22:54:33.412Z,42.76
2017-02-12T22:55:13.935Z,42.66
2017-02-12T22:55:54.483Z,42.57
2017-02-12T22:56:34.986Z,42.66
2017-02-12T22:57:15.509Z,42.57
2017-02-12T22:57:56.029Z,42.85
2017-02-12T22:58:36.578Z,42.85
2017-02-12T22:59:17.100Z,42.85
2017-02-12T22:59:57.622Z,43.14
2017-02-12T23:00:38.168Z,43.33
2017-02-12T23:01:18.689Z,43.14
2017-02-12T23:01:59.218Z,43.52
2017-02-12T23:02:39.745Z,43.52
2017-02-12T23:03:20.294Z,43.42
2017-02-12T23:04:00.819Z,43.52
2017-02-12T23:04:41.375Z,43.42
2017-02-12T23:05:21.924Z,43.42
2017-02-12T23:06:02.454Z,43.14
2017-02-12T23:06:42.966Z,43.23
2017-02-12T23:07:23.502Z,43.52
2017-02-12T23:08:04.025Z,43.33
2017-02-12T23:08:44.564Z,43.23
2017-02-12T23:09:25.090Z,43.26
2017-02-12T23:10:05.634Z,42.85
2017-02-12T23:10:46.174Z,42.57
2017-02-12T23:11:26.690Z,42.57
2017-02-12T23:12:07.231Z,42.38
2017-02-12T23:12:47.771Z,42.57
2017-02-12T23:13:28.298Z,42.76
2017-02-12T23:14:08.812Z,42.47
2017-02-12T23:14:49.380Z,42.76
2017-02-12T23:15:29.915Z,42.57
2017-02-12T23:16:10.461Z,42.66
2017-02-12T23:16:50.976Z,42.95
2017-02-12T23:17:31.541Z,42.57
2017-02-12T23:18:12.066Z,42.76
2017-02-12T23:18:52.594Z,42.85
2017-02-12T23:19:33.115Z,42.95
2017-02-12T23:20:13.633Z,43.14
2017-02-12T23:20:54.167Z,43.04
2017-02-12T23:21:34.713Z,43.04
2017-02-12T23:22:15.221Z,42.85
2017-02-12T23:22:55.756Z,42.85
2017-02-12T23:23:36.277Z,42.95
2017-02-12T23:24:16.798Z,42.76
2017-02-12T23:24:57.323Z,42.59
2017-02-12T23:25:37.854Z,42.66
2017-02-12T23:26:18.414Z,42.66
2017-02-12T23:26:58.929Z,42.47
2017-02-12T23:27:39.527Z,42.76
2017-02-12T23:28:20.052Z,42.47
2017-02-12T23:29:00.571Z,42.66
2017-02-12T23:29:41.088Z,42.76
2017-02-12T23:30:21.626Z,42.85
2017-02-12T23:31:02.144Z,42.85
2017-02-12T23:31:42.652Z,42.85
2017-02-12T23:32:23.180Z,42.95
2017-02-12T23:33:03.691Z,42.57
2017-02-12T23:33:44.237Z,42.38
2017-02-12T23:34:24.777Z,42.66
2017-02-12T23:35:05.302Z,42.29
2017-02-12T23:35:45.811Z,42.59
2017-02-12T23:36:26.341Z,42.57
2017-02-12T23:37:06.869Z,42.47
2017-02-12T23:37:47.419Z,42.66
2017-02-12T23:38:27.927Z,42.66
2017-02-12T23:39:08.480Z,42.47
2017-02-12T23:39:49.012Z,42.57
2017-02-12T23:40:29.529Z,42.85
2017-02-12T23:41:10.059Z,42.85
2017-02-12T23:41:50.587Z,43.23
2017-02-12T23:42:31.124Z,43.14
2017-02-12T23:43:11.652Z,43.04
2017-02-12T23:43:52.186Z,42.85
2017-02-12T23:44:32.712Z,42.57
2017-02-12T23:45:13.268Z,42.76
2017-02-12T23:45:53.785Z,42.85
2017-02-12T23:46:34.329Z,43.14
2017-02-12T23:47:14.872Z,43.14
2017-02-12T23:47:55.398Z,43.23
2017-02-12T23:48:35.915Z,43.33
2017-02-12T23:49:16.437Z,43.61
2017-02-12T23:49:56.953Z,43.33
2017-02-12T23:50:37.480Z,43.33
2017-02-12T23:51:17.998Z,43.61
2017-02-12T23:51:58.556Z,43.14
2017-02-12T23:52:39.075Z,43.33
2017-02-12T23:53:19.602Z,43.52
2017-02-12T23:54:00.114Z,43.52
2017-02-12T23:54:40.631Z,43.8
2017-02-12T23:55:21.156Z,43.61
2017-02-12T23:56:01.731Z,44.18
2017-02-12T23:56:42.248Z,43.99
2017-02-12T23:57:22.778Z,43.99
2017-02-12T23:58:03.295Z,44.56
2017-02-12T23:58:43.808Z,44.37
2017-02-12T23:59:24.326Z,44.46
